createdAt,value
2019-04-11T00:01:05.975Z,17.17
2019-04-11T00:03:35.670Z,14.00
2019-04-11T00:06:05.449Z,13.80
2019-04-11T00:08:35.802Z,16.07
2019-04-11T00:11:06.147Z,14.23
2019-04-11T00:13:36.477Z,13.60
2019-04-11T00:16:08.821Z,14.23
2019-04-11T00:18:38.795Z,13.97
2019-04-11T00:21:08.711Z,15.40
2019-04-11T00:23:38.624Z,14.60
2019-04-11T00:26:08.430Z,12.70
2019-04-11T00:28:37.875Z,15.43
2019-04-11T00:31:08.371Z,14.30
2019-04-11T00:33:38.220Z,12.97
2019-04-11T00:36:08.340Z,13.47
2019-04-11T00:38:38.233Z,16.17
2019-04-11T00:41:08.000Z,17.30
2019-04-11T00:43:41.958Z,15.60
2019-04-11T00:46:09.854Z,16.20
2019-04-11T00:48:39.402Z,13.67
2019-04-11T00:51:09.810Z,15.93
2019-04-11T00:53:40.272Z,13.43
2019-04-11T00:56:10.855Z,17.03
2019-04-11T00:58:41.542Z,15.43
2019-04-11T01:01:11.418Z,18.20
2019-04-11T01:03:40.871Z,17.20
2019-04-11T01:06:10.295Z,15.70
2019-04-11T01:08:39.975Z,16.87
2019-04-11T01:11:12.405Z,15.93
2019-04-11T01:13:50.323Z,14.33
2019-04-11T01:16:21.015Z,14.00
2019-04-11T01:18:50.420Z,14.20
2019-04-11T01:21:20.102Z,20.27
2019-04-11T01:23:49.438Z,15.87
2019-04-11T01:26:19.154Z,12.73
2019-04-11T01:28:49.068Z,15.53
2019-04-11T01:31:20.494Z,15.77
2019-04-11T01:33:49.931Z,16.90
2019-04-11T01:36:19.291Z,15.80
2019-04-11T01:38:52.633Z,16.63
2019-04-11T01:41:22.485Z,17.83
2019-04-11T01:43:56.411Z,13.93
2019-04-11T01:46:23.018Z,16.57
2019-04-11T01:51:33.884Z,15.90
2019-04-11T01:54:03.688Z,16.93
2019-04-11T01:56:33.610Z,16.37
2019-04-11T01:59:03.213Z,14.43
2019-04-11T02:01:56.935Z,19.00
2019-04-11T02:04:38.470Z,13.93
2019-04-11T02:07:10.150Z,16.93
2019-04-11T02:09:40.148Z,14.73
2019-04-11T02:12:09.994Z,16.50
2019-04-11T02:14:39.807Z,18.30
2019-04-11T02:17:10.445Z,22.50
2019-04-11T02:19:40.523Z,16.00
2019-04-11T02:22:28.577Z,18.47
2019-04-11T02:25:12.271Z,16.27
2019-04-11T02:27:42.300Z,16.33
2019-04-11T02:30:14.388Z,15.73
2019-04-11T02:32:45.490Z,15.10
2019-04-11T02:35:15.502Z,17.33
2019-04-11T02:37:47.586Z,17.53
2019-04-11T02:40:17.684Z,15.97
2019-04-11T02:42:47.676Z,16.57
2019-04-11T02:45:31.108Z,16.93
2019-04-11T02:47:51.270Z,16.33
2019-04-11T02:50:22.006Z,14.77
2019-04-11T02:52:52.046Z,18.50
2019-04-11T02:55:22.903Z,22.57
2019-04-11T02:57:54.204Z,16.67
2019-04-11T03:00:24.474Z,16.03
2019-04-11T03:02:56.925Z,17.63
2019-04-11T03:05:26.954Z,17.67
2019-04-11T03:07:58.268Z,17.13
2019-04-11T03:10:28.923Z,15.97
2019-04-11T03:12:59.040Z,15.90
2019-04-11T03:15:43.000Z,18.03
2019-04-11T03:18:04.180Z,17.87
2019-04-11T03:20:39.213Z,15.40
2019-04-11T03:23:08.567Z,20.50
2019-04-11T03:25:38.510Z,15.50
2019-04-11T03:28:14.058Z,14.73
2019-04-11T03:31:01.690Z,17.87
2019-04-11T03:38:40.017Z,15.13
2019-04-11T03:41:05.907Z,17.03
2019-04-11T03:43:30.165Z,16.37
2019-04-11T03:46:10.910Z,17.77
2019-04-11T03:48:33.374Z,17.43
2019-04-11T03:50:54.246Z,15.83
2019-04-11T03:53:25.333Z,16.87
2019-04-11T03:55:55.885Z,17.80
2019-04-11T03:58:25.925Z,20.53
2019-04-11T04:01:00.692Z,19.27
2019-04-11T04:03:28.973Z,17.10
2019-04-11T04:06:00.014Z,20.57
2019-04-11T04:08:31.455Z,21.20
2019-04-11T04:11:16.822Z,16.47
2019-04-11T04:13:54.473Z,17.97
2019-04-11T04:16:59.826Z,23.17
2019-04-11T04:19:37.676Z,15.60
2019-04-11T04:22:15.481Z,18.83
2019-04-11T04:24:46.799Z,18.13
2019-04-11T04:27:17.281Z,18.97
2019-04-11T04:29:51.247Z,21.47
2019-04-11T04:32:19.266Z,17.10
2019-04-11T04:34:50.833Z,16.77
2019-04-11T04:37:22.409Z,15.90
2019-04-11T04:40:13.576Z,17.50
2019-04-11T04:42:31.599Z,18.83
2019-04-11T04:44:55.956Z,20.53
2019-04-11T04:47:37.018Z,16.73
2019-04-11T04:49:57.281Z,18.63
2019-04-11T04:52:29.669Z,16.70
2019-04-11T04:55:01.522Z,19.87
2019-04-11T04:57:31.762Z,16.53
2019-04-11T05:00:03.278Z,17.53
2019-04-11T05:02:35.452Z,19.83
2019-04-11T05:05:06.102Z,20.13
2019-04-11T05:07:40.224Z,17.30
2019-04-11T05:10:08.910Z,18.57
2019-04-11T05:12:38.921Z,19.03
2019-04-11T05:15:10.044Z,14.67
2019-04-11T05:17:40.707Z,20.57
2019-04-11T05:20:11.981Z,18.90
2019-04-11T05:22:41.940Z,17.13
2019-04-11T05:25:12.617Z,18.27
2019-04-11T05:27:42.524Z,19.37
2019-04-11T05:30:12.197Z,18.77
2019-04-11T05:32:41.907Z,22.57
2019-04-11T05:35:11.603Z,21.03
2019-04-11T05:37:41.257Z,21.50
2019-04-11T05:40:11.249Z,21.03
2019-04-11T05:42:41.716Z,22.30
2019-04-11T05:45:15.685Z,18.03
2019-04-11T05:47:43.493Z,23.17
2019-04-11T05:50:20.073Z,17.60
2019-04-11T05:52:50.402Z,18.23
2019-04-11T05:55:20.220Z,18.67
2019-04-11T05:57:50.218Z,21.40
2019-04-11T06:00:41.733Z,18.93
2019-04-11T06:03:11.755Z,26.43
2019-04-11T06:06:06.765Z,19.60
2019-04-11T06:08:36.327Z,20.23
2019-04-11T06:11:31.121Z,22.43
2019-04-11T06:14:26.996Z,19.00
2019-04-11T06:17:00.872Z,18.20
2019-04-11T06:20:06.053Z,19.40
2019-04-11T06:22:38.613Z,23.43
2019-04-11T06:25:25.832Z,23.10
2019-04-11T06:28:04.083Z,18.20
2019-04-11T06:30:50.716Z,21.90
2019-04-11T06:33:28.785Z,20.80
2019-04-11T06:36:23.588Z,21.13
2019-04-11T06:39:13.870Z,21.00
2019-04-11T06:42:01.668Z,22.10
2019-04-11T06:44:50.125Z,16.60
2019-04-11T06:47:37.848Z,21.57
2019-04-11T06:50:25.105Z,20.83
2019-04-11T06:52:54.737Z,20.83
2019-04-11T06:55:42.681Z,20.93
2019-04-11T06:58:16.441Z,20.80
2019-04-11T07:00:50.007Z,21.00
2019-04-11T07:03:27.470Z,22.83
2019-04-11T07:05:57.257Z,19.93
2019-04-11T07:08:30.719Z,25.00
2019-04-11T07:11:03.453Z,18.27
2019-04-11T07:13:47.702Z,17.80
2019-04-11T07:16:18.519Z,19.07
2019-04-11T07:18:59.120Z,22.47
2019-04-11T07:21:35.325Z,20.07
2019-04-11T07:24:24.690Z,22.20
2019-04-11T07:27:03.154Z,24.13
2019-04-11T07:30:00.758Z,20.47
2019-04-11T07:32:30.795Z,19.57
2019-04-11T07:35:25.215Z,21.63
2019-04-11T07:37:58.099Z,21.67
2019-04-11T07:40:56.172Z,22.33
2019-04-11T07:43:29.203Z,19.60
2019-04-11T07:46:25.159Z,18.93
2019-04-11T07:48:59.437Z,21.63
2019-04-11T07:51:34.322Z,21.50
2019-04-11T07:54:06.621Z,19.63
2019-04-11T07:57:08.362Z,21.23
2019-04-11T08:00:00.270Z,23.87
2019-04-11T08:02:48.182Z,24.27
2019-04-11T08:05:34.737Z,19.67
2019-04-11T08:08:23.251Z,21.53
2019-04-11T08:11:17.829Z,23.47
2019-04-11T08:14:04.805Z,26.13
2019-04-11T08:17:38.986Z,19.83
2019-04-11T08:20:55.348Z,20.37
2019-04-11T08:23:25.585Z,21.50
2019-04-11T08:26:28.321Z,24.10
2019-04-11T08:29:05.309Z,19.67
2019-04-11T08:31:48.775Z,25.17
2019-04-11T08:34:20.292Z,21.03
2019-04-11T08:37:09.332Z,22.23
2019-04-11T08:39:42.790Z,19.33
2019-04-11T08:42:31.697Z,20.63
2019-04-11T08:45:01.476Z,20.50
2019-04-11T08:47:46.865Z,24.60
2019-04-11T08:50:12.313Z,22.93
2019-04-11T08:53:00.880Z,23.33
2019-04-11T08:55:53.619Z,22.03
2019-04-11T08:58:40.691Z,22.53
2019-04-11T09:01:11.993Z,18.27
2019-04-11T09:04:07.407Z,22.63
2019-04-11T09:06:37.172Z,24.07
2019-04-11T09:09:25.786Z,20.57
2019-04-11T09:12:02.494Z,20.33
2019-04-11T09:14:50.583Z,20.10
2019-04-11T09:17:36.660Z,26.30
2019-04-11T09:20:38.519Z,21.50
2019-04-11T09:23:11.245Z,20.43
2019-04-11T09:25:59.446Z,19.27
2019-04-11T09:28:44.045Z,20.10
2019-04-11T09:31:42.114Z,21.83
2019-04-11T09:34:37.735Z,22.77
2019-04-11T09:37:36.020Z,20.03
2019-04-11T09:40:26.488Z,20.60
2019-04-11T09:43:14.212Z,19.67
2019-04-11T09:46:01.961Z,21.20
2019-04-11T09:48:53.919Z,26.23
2019-04-11T09:51:49.911Z,22.20
2019-04-11T09:54:32.444Z,26.17
2019-04-11T09:57:24.873Z,22.67
2019-04-11T10:00:26.586Z,24.03
2019-04-11T10:03:15.474Z,21.63
2019-04-11T10:06:03.034Z,25.17
2019-04-11T10:08:51.133Z,25.43
2019-04-11T10:11:42.986Z,25.37
2019-04-11T10:14:15.530Z,23.57
2019-04-11T10:17:02.969Z,24.40
2019-04-11T10:19:44.356Z,25.93
2019-04-11T10:22:48.399Z,24.17
2019-04-11T10:25:30.708Z,24.57
2019-04-11T10:28:30.407Z,25.30
2019-04-11T10:31:29.037Z,21.27
2019-04-11T10:34:07.430Z,22.97
2019-04-11T10:36:47.392Z,25.00
2019-04-11T10:39:36.042Z,23.27
2019-04-11T10:42:08.668Z,25.63
2019-04-11T10:45:04.528Z,23.50
2019-04-11T10:47:34.645Z,26.57
2019-04-11T10:50:19.469Z,29.03
2019-04-11T10:52:52.998Z,23.80
2019-04-11T10:55:40.522Z,24.80
2019-04-11T10:58:14.516Z,27.70
2019-04-11T11:00:57.754Z,25.37
2019-04-11T11:03:32.066Z,25.37
2019-04-11T11:06:03.123Z,27.30
2019-04-11T11:08:36.131Z,28.20
2019-04-11T11:11:28.361Z,29.03
2019-04-11T11:14:12.269Z,24.60
2019-04-11T11:16:54.757Z,26.53
2019-04-11T11:20:11.857Z,29.40
2019-04-11T11:22:49.019Z,28.00
2019-04-11T11:25:51.581Z,38.57
2019-04-11T11:28:23.786Z,37.10
2019-04-11T11:31:28.004Z,31.13
2019-04-11T11:33:58.777Z,25.27
2019-04-11T11:36:54.815Z,28.60
2019-04-11T11:39:47.254Z,27.00
2019-04-11T11:42:48.423Z,32.30
2019-04-11T11:45:28.361Z,28.63
2019-04-11T11:48:13.652Z,27.90
2019-04-11T11:50:39.114Z,33.70
2019-04-11T11:53:40.576Z,32.43
2019-04-11T11:56:10.634Z,28.90
2019-04-11T11:59:11.299Z,27.20
2019-04-11T12:01:49.313Z,27.17
2019-04-11T12:04:42.239Z,29.43
2019-04-11T12:07:14.599Z,27.90
2019-04-11T12:10:13.253Z,28.73
2019-04-11T12:13:06.668Z,27.27
2019-04-11T12:16:01.621Z,41.07
2019-04-11T12:18:47.233Z,31.40
2019-04-11T12:21:20.499Z,29.10
2019-04-11T12:24:06.409Z,26.27
2019-04-11T12:26:41.636Z,26.50
2019-04-11T12:29:30.622Z,28.80
2019-04-11T12:32:02.128Z,30.27
2019-04-11T12:34:49.416Z,25.73
2019-04-11T12:37:25.301Z,28.27
2019-04-11T12:40:13.862Z,31.30
2019-04-11T12:42:43.433Z,28.53
2019-04-11T12:45:30.943Z,28.33
2019-04-11T12:48:01.698Z,29.40
2019-04-11T12:51:06.062Z,29.50
2019-04-11T12:53:35.629Z,26.90
2019-04-11T12:56:30.117Z,30.67
2019-04-11T12:59:05.550Z,28.93
2019-04-11T13:01:53.028Z,29.73
2019-04-11T13:04:36.832Z,29.50
2019-04-11T13:07:31.743Z,28.40
2019-04-11T13:10:27.589Z,29.40
2019-04-11T13:13:19.205Z,32.40
2019-04-11T13:15:55.812Z,30.63
2019-04-11T13:18:59.763Z,24.77
2019-04-11T13:21:34.277Z,29.73
2019-04-11T13:24:28.760Z,29.77
2019-04-11T13:27:19.178Z,29.77
2019-04-11T13:30:06.669Z,28.73
2019-04-11T13:32:58.391Z,27.20
2019-04-11T13:36:05.397Z,30.33
2019-04-11T13:38:42.584Z,27.33
2019-04-11T13:41:50.851Z,29.27
2019-04-11T13:44:34.834Z,29.07
2019-04-11T13:47:32.094Z,30.77
2019-04-11T13:50:05.301Z,30.33
2019-04-11T13:52:49.119Z,35.73
2019-04-11T13:55:30.364Z,31.93
2019-04-11T13:58:18.912Z,30.37
2019-04-11T14:01:07.508Z,28.67
2019-04-11T14:03:58.962Z,29.00
2019-04-11T14:06:35.367Z,27.70
2019-04-11T14:09:40.193Z,25.57
2019-04-11T14:12:15.630Z,28.13
2019-04-11T14:15:07.047Z,31.03
2019-04-11T14:17:42.515Z,27.47
2019-04-11T14:20:29.801Z,26.67
2019-04-11T14:23:15.081Z,26.33
2019-04-11T14:26:17.504Z,28.13
2019-04-11T14:29:15.263Z,32.37
2019-04-11T14:32:09.875Z,25.47
2019-04-11T14:35:04.993Z,26.93
2019-04-11T14:37:53.588Z,27.93
2019-04-11T14:40:48.500Z,29.27
2019-04-11T14:43:26.201Z,30.37
2019-04-11T14:46:23.653Z,27.20
2019-04-11T14:49:11.167Z,29.07
2019-04-11T14:51:59.953Z,29.70
2019-04-11T14:54:41.326Z,28.33
2019-04-11T14:57:35.172Z,29.00
2019-04-11T15:00:15.499Z,26.63
2019-04-11T15:03:04.005Z,27.60
2019-04-11T15:05:44.605Z,26.13
2019-04-11T15:08:14.923Z,33.70
2019-04-11T15:11:18.593Z,26.53
2019-04-11T15:13:52.600Z,37.53
2019-04-11T15:16:40.058Z,27.13
2019-04-11T15:19:09.846Z,24.87
2019-04-11T15:22:10.793Z,27.13
2019-04-11T15:24:40.456Z,27.87
2019-04-11T15:27:28.155Z,30.23
2019-04-11T15:29:59.229Z,26.17
2019-04-11T15:32:36.511Z,28.83
2019-04-11T15:35:12.196Z,28.47
2019-04-11T15:38:00.775Z,27.00
2019-04-11T15:40:36.884Z,26.67
2019-04-11T15:43:42.257Z,29.47
2019-04-11T15:46:23.445Z,29.83
2019-04-11T15:49:20.494Z,26.63
2019-04-11T15:51:45.235Z,27.20
2019-04-11T15:54:34.855Z,26.20
2019-04-11T15:57:33.085Z,25.73
2019-04-11T16:00:21.800Z,34.40
2019-04-11T16:03:28.485Z,25.07
2019-04-11T16:06:15.844Z,26.90
2019-04-11T16:08:47.395Z,25.70
2019-04-11T16:11:42.220Z,30.03
2019-04-11T16:14:23.032Z,28.80
2019-04-11T16:17:02.291Z,23.80
2019-04-11T16:19:59.936Z,26.40
2019-04-11T16:22:47.628Z,25.77
2019-04-11T16:25:19.283Z,24.63
2019-04-11T16:28:08.214Z,27.43
2019-04-11T16:30:40.417Z,27.10
2019-04-11T16:33:17.043Z,26.60
2019-04-11T16:36:14.656Z,23.17
2019-04-11T16:39:19.950Z,26.37
2019-04-11T16:42:03.754Z,26.43
2019-04-11T16:44:54.897Z,23.37
2019-04-11T16:47:49.291Z,23.53
2019-04-11T16:50:18.716Z,21.87
2019-04-11T16:52:48.163Z,23.77
2019-04-11T16:55:17.525Z,23.77
2019-04-11T16:57:46.925Z,21.93
2019-04-11T17:00:20.227Z,26.43
2019-04-11T17:02:47.514Z,21.00
2019-04-11T17:05:16.950Z,21.27
2019-04-11T17:08:04.163Z,21.10
2019-04-11T17:10:51.384Z,22.40
2019-04-11T17:13:20.852Z,27.43
2019-04-11T17:15:50.236Z,23.60
2019-04-11T17:18:19.615Z,21.17
2019-04-11T17:20:48.973Z,22.80
2019-04-11T17:23:18.335Z,22.83
2019-04-11T17:25:52.351Z,23.77
2019-04-11T17:28:22.649Z,23.70
2019-04-11T17:30:49.878Z,20.97
2019-04-11T17:33:19.237Z,27.93
2019-04-11T17:35:48.776Z,23.00
2019-04-11T17:38:18.137Z,20.90
2019-04-11T17:40:47.483Z,20.90
2019-04-11T17:43:16.931Z,20.97
2019-04-11T17:45:46.356Z,23.97
2019-04-11T17:48:15.884Z,21.70
2019-04-11T17:50:45.312Z,23.53
2019-04-11T17:53:14.728Z,22.33
2019-04-11T17:55:44.093Z,23.00
2019-04-11T17:58:13.560Z,24.73
2019-04-11T18:00:45.154Z,29.50
2019-04-11T18:03:14.539Z,21.87
2019-04-11T18:05:46.632Z,22.90
2019-04-11T18:08:14.968Z,22.03
2019-04-11T18:10:44.407Z,22.40
2019-04-11T18:13:13.849Z,22.60
2019-04-11T18:15:43.223Z,23.53
2019-04-11T18:18:12.605Z,22.27
2019-04-11T18:20:42.115Z,21.67
2019-04-11T18:23:11.712Z,21.30
2019-04-11T18:25:41.070Z,22.40
2019-04-11T18:28:10.515Z,20.03
2019-04-11T18:30:39.969Z,23.07
2019-04-11T18:33:09.456Z,25.37
2019-04-11T18:35:38.828Z,22.13
2019-04-11T18:38:08.436Z,21.47
2019-04-11T18:40:37.977Z,22.33
2019-04-11T18:43:08.909Z,23.63
2019-04-11T18:45:38.299Z,20.83
2019-04-11T18:48:07.823Z,21.20
2019-04-11T18:50:37.205Z,27.13
2019-04-11T18:53:06.566Z,22.00
2019-04-11T18:55:35.979Z,20.57
2019-04-11T18:58:05.461Z,21.70
2019-04-11T19:00:41.060Z,20.40
2019-04-11T19:03:10.882Z,20.40
2019-04-11T19:05:42.754Z,21.90
2019-04-11T19:08:13.120Z,20.50
2019-04-11T19:10:42.970Z,22.67
2019-04-11T19:13:16.693Z,22.37
2019-04-11T19:15:45.719Z,20.83
2019-04-11T19:18:17.043Z,20.00
2019-04-11T19:20:49.875Z,22.97
2019-04-11T19:23:17.758Z,20.93
2019-04-11T19:25:47.219Z,21.20
2019-04-11T19:28:16.660Z,21.83
2019-04-11T19:30:46.308Z,22.03
2019-04-11T19:33:15.673Z,23.57
2019-04-11T19:35:45.050Z,24.43
2019-04-11T19:38:29.123Z,23.07
2019-04-11T19:40:58.582Z,21.83
2019-04-11T19:43:28.109Z,21.33
2019-04-11T19:45:58.733Z,23.73
2019-04-11T19:48:28.330Z,24.77
2019-04-11T19:50:58.969Z,19.07
2019-04-11T19:53:32.761Z,19.20
2019-04-11T19:56:28.341Z,18.60
2019-04-11T19:58:57.737Z,20.23
2019-04-11T20:01:40.751Z,20.00
2019-04-11T20:04:10.127Z,21.47
2019-04-11T20:06:39.709Z,24.60
2019-04-11T20:09:09.432Z,23.03
2019-04-11T20:11:38.818Z,20.03
2019-04-11T20:14:08.369Z,21.60
2019-04-11T20:16:41.982Z,20.60
2019-04-11T20:19:08.896Z,24.23
2019-04-11T20:21:39.004Z,20.43
2019-04-11T20:24:08.417Z,20.77
2019-04-11T20:26:37.806Z,20.13
2019-04-11T20:29:07.238Z,22.73
2019-04-11T20:31:36.627Z,18.90
2019-04-11T20:34:07.227Z,19.43
2019-04-11T20:36:41.066Z,20.93
2019-04-11T20:39:09.069Z,22.90
2019-04-11T20:41:38.481Z,21.30
2019-04-11T20:44:07.970Z,17.53
2019-04-11T20:46:37.618Z,23.03
2019-04-11T20:49:07.008Z,19.53
2019-04-11T20:51:36.450Z,22.20
2019-04-11T20:54:07.244Z,20.40
2019-04-11T20:56:40.128Z,17.27
2019-04-11T20:59:10.362Z,18.80
2019-04-11T21:01:39.228Z,18.27
2019-04-11T21:04:08.680Z,17.27
2019-04-11T21:06:38.030Z,19.07
2019-04-11T21:09:10.408Z,19.40
2019-04-11T21:11:39.815Z,21.83
2019-04-11T21:14:09.247Z,17.33
2019-04-11T21:16:38.650Z,19.40
2019-04-11T21:19:08.008Z,18.07
2019-04-11T21:21:37.409Z,19.03
2019-04-11T21:24:06.791Z,20.37
2019-04-11T21:26:36.160Z,16.47
2019-04-11T21:29:05.902Z,16.93
2019-04-11T21:31:35.261Z,19.30
2019-04-11T21:34:04.712Z,18.70
2019-04-11T21:36:34.082Z,18.37
2019-04-11T21:39:04.514Z,16.17
2019-04-11T21:41:36.045Z,16.50
2019-04-11T21:44:06.084Z,19.57
2019-04-11T21:46:38.124Z,19.63
2019-04-11T21:49:07.427Z,19.67
2019-04-11T21:51:41.538Z,16.13
2019-04-11T21:54:07.881Z,17.27
2019-04-11T21:56:37.244Z,18.60
2019-04-11T21:59:06.637Z,16.77
2019-04-11T22:01:37.651Z,17.83
2019-04-11T22:04:07.120Z,17.77
2019-04-11T22:06:36.522Z,18.97
2019-04-11T22:09:08.106Z,15.60
2019-04-11T22:11:38.393Z,16.10
2019-04-11T22:14:10.986Z,20.50
2019-04-11T22:16:39.462Z,14.07
2019-04-11T22:19:09.031Z,15.90
2019-04-11T22:21:38.396Z,15.17
2019-04-11T22:24:07.856Z,13.53
2019-04-11T22:26:37.299Z,14.13
2019-04-11T22:29:06.773Z,13.43
2019-04-11T22:31:36.195Z,15.30
2019-04-11T22:34:17.612Z,13.27
2019-04-11T22:36:46.981Z,18.77
2019-04-11T22:39:16.360Z,14.33
2019-04-11T22:41:45.726Z,12.93
2019-04-11T22:44:15.096Z,14.53
2019-04-11T22:46:44.454Z,12.43
2019-04-11T22:49:13.830Z,11.47
2019-04-11T22:51:43.671Z,12.27
2019-04-11T22:54:13.800Z,10.60
2019-04-11T22:56:43.221Z,11.97
2019-04-11T22:59:14.009Z,11.70
2019-04-11T23:01:46.503Z,14.80
2019-04-11T23:04:17.032Z,14.10
2019-04-11T23:06:47.247Z,10.97
2019-04-11T23:09:19.551Z,11.33
2019-04-11T23:11:48.247Z,11.43
2019-04-11T23:14:17.611Z,11.33
2019-04-11T23:16:46.971Z,8.93
2019-04-11T23:19:16.345Z,13.17
2019-04-11T23:21:45.711Z,10.37
2019-04-11T23:24:15.084Z,10.87
2019-04-11T23:26:44.456Z,10.63
2019-04-11T23:29:15.952Z,12.60
2019-04-11T23:31:44.873Z,11.23
2019-04-11T23:34:14.223Z,9.97
2019-04-11T23:36:43.580Z,10.00
2019-04-11T23:39:12.934Z,11.37
2019-04-11T23:41:42.333Z,11.87
2019-04-11T23:44:11.689Z,9.57
2019-04-11T23:46:41.056Z,9.03
2019-04-11T23:49:10.426Z,11.07
2019-04-11T23:51:39.799Z,8.70
2019-04-11T23:54:09.223Z,8.50
2019-04-11T23:56:38.567Z,9.03
2019-04-11T23:59:08.022Z,10.03
